Carat — 9HA4131 — position and weather

sailwx.info

Track history (hours):
 
Tides and Currents Weather Stations Pressure Air Temp Water Temp Dewpoint Dewpoint Depression Visibility Wind Speed Wind Dir Waves Ship Positions

Carat

Last reported at 2018-Feb-16 22:18 UTC. Time now 2018-Feb-17 19:48 UTC.
Position N 39°41' E 023°56'.

Length 141 m; draft 8.1 m.

Type: Cargo ship. MMSI: 249163000.

Date/timePositionNaut miles runAvg speedWind from/ knotsBaromVisibWave heightAir tempDewpointWater temp
2018-Feb-16 22:18N 39°41' E 023°56'412.5
2018-Feb-16 21:57N 39°39' E 024°01'612.6
2018-Feb-16 21:29N 39°36' E 024°08'120 8.7
2018-Feb-16 07:46N 37°37' E 023°51'312.1
2018-Feb-16 07:30N 37°38' E 023°48'611.4
2018-Feb-16 07:00N 37°41' E 023°42'612.3
2018-Feb-16 06:30N 37°47' E 023°38'612.1
2018-Feb-16 06:00N 37°53' E 023°37'5 9.1
2018-Feb-16 05:30N 37°57' E 023°36'0 0.2
2018-Feb-16 05:00N 37°57' E 023°36'0 0.0
2018-Feb-16 04:30N 37°57' E 023°36'0 0.0
2018-Feb-16 04:00N 37°57' E 023°36'0 0.0
2018-Feb-16 03:30N 37°57' E 023°36'0 0.0
2018-Feb-16 03:00N 37°57' E 023°36'0 0.0
2018-Feb-16 02:30N 37°57' E 023°36'0 0.0
2018-Feb-16 02:00N 37°57' E 023°36'0 0.0
2018-Feb-16 01:30N 37°57' E 023°36'0 0.0
2018-Feb-16 01:00N 37°57' E 023°36'0 0.0
2018-Feb-16 00:30N 37°57' E 023°36'0 0.0
2018-Feb-16 00:00N 37°57' E 023°36'0 0.0
2018-Feb-15 23:30N 37°57' E 023°36'0 0.0
2018-Feb-15 23:00N 37°57' E 023°36'0 0.0
2018-Feb-15 22:30N 37°57' E 023°36'0 0.0
2018-Feb-15 22:00N 37°57' E 023°36'0 0.0
2018-Feb-15 21:30N 37°57' E 023°36'0 0.0
2018-Feb-15 21:00N 37°57' E 023°36'0 0.0
2018-Feb-15 20:30N 37°57' E 023°36'0 0.0
2018-Feb-15 20:00N 37°57' E 023°36'0 0.0
2018-Feb-15 19:30N 37°57' E 023°36'0 0.0
2018-Feb-15 19:00N 37°57' E 023°36'0 0.0
2018-Feb-15 18:30N 37°57' E 023°36'0 0.0
2018-Feb-15 18:00N 37°57' E 023°36'0 0.0
2018-Feb-15 17:30N 37°57' E 023°36'0 0.0
2018-Feb-15 17:00N 37°57' E 023°36'0 0.0
2018-Feb-15 16:30N 37°57' E 023°36'0 0.0
2018-Feb-15 16:00N 37°57' E 023°36'0 0.0
2018-Feb-15 15:30N 37°57' E 023°36'0 0.0
2018-Feb-15 15:00N 37°57' E 023°36'0 0.0
2018-Feb-15 14:30N 37°57' E 023°36'0 0.1
2018-Feb-15 14:00N 37°57' E 023°36'2 3.2
2018-Feb-15 13:31N 37°56' E 023°36'2 4.0
2018-Feb-15 13:00N 37°54' E 023°35'1 1.8
2018-Feb-15 12:30N 37°53' E 023°34'0 0.7
2018-Feb-15 12:00N 37°53' E 023°35'0 0.6
2018-Feb-15 11:30N 37°53' E 023°34'0 0.8
2018-Feb-15 11:00N 37°53' E 023°35'0 0.8
2018-Feb-15 10:30N 37°53' E 023°35'1 2.4
2018-Feb-15 10:00N 37°54' E 023°36'0 0.9
2018-Feb-15 09:30N 37°54' E 023°35'1 1.2
2018-Feb-15 09:00N 37°53' E 023°35'0 0.8
2018-Feb-15 08:31N 37°53' E 023°35'0 0.8
2018-Feb-15 08:01N 37°53' E 023°35'0 0.1
2018-Feb-15 07:30N 37°53' E 023°35'0 0.4
2018-Feb-15 07:00N 37°53' E 023°35'0 0.2
2018-Feb-15 06:30N 37°53' E 023°35'0 0.7
2018-Feb-15 06:00N 37°53' E 023°35'1 1.4
2018-Feb-15 05:30N 37°53' E 023°35'1 1.2
2018-Feb-15 05:00N 37°53' E 023°35'1 1.2
2018-Feb-15 04:31N 37°53' E 023°36'2 4.3
2018-Feb-15 04:00N 37°52' E 023°38'3 5.9
2018-Feb-15 03:30N 37°49' E 023°40'5 8.8
2018-Feb-15 02:58N 37°45' E 023°43'510.4
2018-Feb-15 02:28N 37°40' E 023°45'511.0
2018-Feb-15 02:00N 37°35' E 023°44'1611.1
2018-Feb-15 00:32N 37°19' E 023°40'010.8
2018-Feb-15 00:30N 37°18' E 023°40'44111.2
2018-Feb-13 09:03N 35°48' E 014°43'115.1
2018-Feb-13 09:00N 35°48' E 014°42'713.8
2018-Feb-13 08:29N 35°49' E 014°33'1 0.0
2018-Feb-12 01:49N 35°49' E 014°32'1 2.2
2018-Feb-12 01:27N 35°49' E 014°33'2 4.0
2018-Feb-12 01:00N 35°48' E 014°35'2 4.4
2018-Feb-12 00:30N 35°48' E 014°38'510.2
2018-Feb-12 00:01N 35°50' E 014°44'0 0.2
2018-Feb-11 23:18N 35°50' E 014°44'0 0.0
2018-Feb-11 23:00N 35°50' E 014°44'0 0.1
2018-Feb-11 22:30N 35°50' E 014°44'0 0.1
2018-Feb-11 21:57N 35°50' E 014°44'0 0.0
2018-Feb-11 21:30N 35°50' E 014°44'0 0.0
2018-Feb-11 20:57N 35°50' E 014°44'0 0.0
2018-Feb-11 20:30N 35°50' E 014°44'0 0.0
2018-Feb-11 20:00N 35°50' E 014°44'0 0.0
2018-Feb-11 19:30N 35°50' E 014°44'0 0.0
2018-Feb-11 19:00N 35°50' E 014°44'0 0.0
2018-Feb-11 18:30N 35°50' E 014°44'0 0.0
2018-Feb-11 17:45N 35°50' E 014°44'0 0.0
2018-Feb-11 17:27N 35°50' E 014°44'0 0.1
2018-Feb-11 16:57N 35°50' E 014°44'0 0.0
2018-Feb-11 16:24N 35°50' E 014°44'0 0.0
2018-Feb-11 16:00N 35°50' E 014°44'0 0.0
2018-Feb-11 15:30N 35°50' E 014°44'0 0.1
2018-Feb-11 15:00N 35°50' E 014°44'0 0.7
2018-Feb-11 14:30N 35°50' E 014°44'5 9.0
2018-Feb-11 13:59N 35°50' E 014°50'9213.6
2018-Feb-11 07:16N 37°10' E 015°46'2614.2
2018-Feb-11 05:28N 37°32' E 016°02'614.1
2018-Feb-11 05:00N 37°38' E 016°07'4014.0
2018-Feb-11 02:07N 38°07' E 016°41'214.0
2018-Feb-11 02:00N 38°08' E 016°43'12513.9
2018-Feb-10 17:00N 39°45' E 018°26'714.3
2018-Feb-10 16:30N 39°51' E 018°31'714.0
2018-Feb-10 16:00N 39°57' E 018°35'714.1
2018-Feb-10 15:30N 40°03' E 018°39'  
2018-Feb-07 23:28N 35°52' E 014°53'613.3
2018-Feb-07 23:00N 35°49' E 014°46'713.2
2018-Feb-07 22:30N 35°48' E 014°38'5 0.4
2018-Feb-07 09:19N 35°49' E 014°32'0 0.0
2018-Feb-07 08:55N 35°49' E 014°32'  
Track history (hours):
 
Tides and Currents Weather Stations Pressure Air Temp Water Temp Dewpoint Dewpoint Depression Visibility Wind Speed Wind Dir Waves Ship Positions

Carat

Last reported at 2018-Feb-16 22:18 UTC. Time now 2018-Feb-17 19:48 UTC.
Position N 39°41' E 023°56'.

Length 141 m; draft 8.1 m.

Type: Cargo ship. MMSI: 249163000.

Date/timePositionNaut miles runAvg speedWind from/ knotsBaromVisibWave heightAir tempDewpointWater temp
2018-Feb-16 22:18N 39°41' E 023°56'412.5
2018-Feb-16 21:57N 39°39' E 024°01'612.6
2018-Feb-16 21:29N 39°36' E 024°08'120 8.7
2018-Feb-16 07:46N 37°37' E 023°51'312.1
2018-Feb-16 07:30N 37°38' E 023°48'611.4
2018-Feb-16 07:00N 37°41' E 023°42'612.3
2018-Feb-16 06:30N 37°47' E 023°38'612.1
2018-Feb-16 06:00N 37°53' E 023°37'5 9.1
2018-Feb-16 05:30N 37°57' E 023°36'0 0.2
2018-Feb-16 05:00N 37°57' E 023°36'0 0.0
2018-Feb-16 04:30N 37°57' E 023°36'0 0.0
2018-Feb-16 04:00N 37°57' E 023°36'0 0.0
2018-Feb-16 03:30N 37°57' E 023°36'0 0.0
2018-Feb-16 03:00N 37°57' E 023°36'0 0.0
2018-Feb-16 02:30N 37°57' E 023°36'0 0.0
2018-Feb-16 02:00N 37°57' E 023°36'0 0.0
2018-Feb-16 01:30N 37°57' E 023°36'0 0.0
2018-Feb-16 01:00N 37°57' E 023°36'0 0.0
2018-Feb-16 00:30N 37°57' E 023°36'0 0.0
2018-Feb-16 00:00N 37°57' E 023°36'0 0.0
2018-Feb-15 23:30N 37°57' E 023°36'0 0.0
2018-Feb-15 23:00N 37°57' E 023°36'0 0.0
2018-Feb-15 22:30N 37°57' E 023°36'0 0.0
2018-Feb-15 22:00N 37°57' E 023°36'0 0.0
2018-Feb-15 21:30N 37°57' E 023°36'0 0.0
2018-Feb-15 21:00N 37°57' E 023°36'0 0.0
2018-Feb-15 20:30N 37°57' E 023°36'0 0.0
2018-Feb-15 20:00N 37°57' E 023°36'0 0.0
2018-Feb-15 19:30N 37°57' E 023°36'0 0.0
2018-Feb-15 19:00N 37°57' E 023°36'0 0.0
2018-Feb-15 18:30N 37°57' E 023°36'0 0.0
2018-Feb-15 18:00N 37°57' E 023°36'0 0.0
2018-Feb-15 17:30N 37°57' E 023°36'0 0.0
2018-Feb-15 17:00N 37°57' E 023°36'0 0.0
2018-Feb-15 16:30N 37°57' E 023°36'0 0.0
2018-Feb-15 16:00N 37°57' E 023°36'0 0.0
2018-Feb-15 15:30N 37°57' E 023°36'0 0.0
2018-Feb-15 15:00N 37°57' E 023°36'0 0.0
2018-Feb-15 14:30N 37°57' E 023°36'0 0.1
2018-Feb-15 14:00N 37°57' E 023°36'2 3.2
2018-Feb-15 13:31N 37°56' E 023°36'2 4.0
2018-Feb-15 13:00N 37°54' E 023°35'1 1.8
2018-Feb-15 12:30N 37°53' E 023°34'0 0.7
2018-Feb-15 12:00N 37°53' E 023°35'0 0.6
2018-Feb-15 11:30N 37°53' E 023°34'0 0.8
2018-Feb-15 11:00N 37°53' E 023°35'0 0.8
2018-Feb-15 10:30N 37°53' E 023°35'1 2.4
2018-Feb-15 10:00N 37°54' E 023°36'0 0.9
2018-Feb-15 09:30N 37°54' E 023°35'1 1.2
2018-Feb-15 09:00N 37°53' E 023°35'0 0.8
2018-Feb-15 08:31N 37°53' E 023°35'0 0.8
2018-Feb-15 08:01N 37°53' E 023°35'0 0.1
2018-Feb-15 07:30N 37°53' E 023°35'0 0.4
2018-Feb-15 07:00N 37°53' E 023°35'0 0.2
2018-Feb-15 06:30N 37°53' E 023°35'0 0.7
2018-Feb-15 06:00N 37°53' E 023°35'1 1.4
2018-Feb-15 05:30N 37°53' E 023°35'1 1.2
2018-Feb-15 05:00N 37°53' E 023°35'1 1.2
2018-Feb-15 04:31N 37°53' E 023°36'2 4.3
2018-Feb-15 04:00N 37°52' E 023°38'3 5.9
2018-Feb-15 03:30N 37°49' E 023°40'5 8.8
2018-Feb-15 02:58N 37°45' E 023°43'510.4
2018-Feb-15 02:28N 37°40' E 023°45'511.0
2018-Feb-15 02:00N 37°35' E 023°44'1611.1
2018-Feb-15 00:32N 37°19' E 023°40'010.8
2018-Feb-15 00:30N 37°18' E 023°40'44111.2
2018-Feb-13 09:03N 35°48' E 014°43'115.1
2018-Feb-13 09:00N 35°48' E 014°42'713.8
2018-Feb-13 08:29N 35°49' E 014°33'1 0.0
2018-Feb-12 01:49N 35°49' E 014°32'1 2.2
2018-Feb-12 01:27N 35°49' E 014°33'2 4.0
2018-Feb-12 01:00N 35°48' E 014°35'2 4.4
2018-Feb-12 00:30N 35°48' E 014°38'510.2
2018-Feb-12 00:01N 35°50' E 014°44'0 0.2
2018-Feb-11 23:18N 35°50' E 014°44'0 0.0
2018-Feb-11 23:00N 35°50' E 014°44'0 0.1
2018-Feb-11 22:30N 35°50' E 014°44'0 0.1
2018-Feb-11 21:57N 35°50' E 014°44'0 0.0
2018-Feb-11 21:30N 35°50' E 014°44'0 0.0
2018-Feb-11 20:57N 35°50' E 014°44'0 0.0
2018-Feb-11 20:30N 35°50' E 014°44'0 0.0
2018-Feb-11 20:00N 35°50' E 014°44'0 0.0
2018-Feb-11 19:30N 35°50' E 014°44'0 0.0
2018-Feb-11 19:00N 35°50' E 014°44'0 0.0
2018-Feb-11 18:30N 35°50' E 014°44'0 0.0
2018-Feb-11 17:45N 35°50' E 014°44'0 0.0
2018-Feb-11 17:27N 35°50' E 014°44'0 0.1
2018-Feb-11 16:57N 35°50' E 014°44'0 0.0
2018-Feb-11 16:24N 35°50' E 014°44'0 0.0
2018-Feb-11 16:00N 35°50' E 014°44'0 0.0
2018-Feb-11 15:30N 35°50' E 014°44'0 0.1
2018-Feb-11 15:00N 35°50' E 014°44'0 0.7
2018-Feb-11 14:30N 35°50' E 014°44'5 9.0
2018-Feb-11 13:59N 35°50' E 014°50'9213.6
2018-Feb-11 07:16N 37°10' E 015°46'2614.2
2018-Feb-11 05:28N 37°32' E 016°02'614.1
2018-Feb-11 05:00N 37°38' E 016°07'4014.0
2018-Feb-11 02:07N 38°07' E 016°41'214.0
2018-Feb-11 02:00N 38°08' E 016°43'12513.9
2018-Feb-10 17:00N 39°45' E 018°26'714.3
2018-Feb-10 16:30N 39°51' E 018°31'714.0
2018-Feb-10 16:00N 39°57' E 018°35'714.1
2018-Feb-10 15:30N 40°03' E 018°39'  
2018-Feb-07 23:28N 35°52' E 014°53'613.3
2018-Feb-07 23:00N 35°49' E 014°46'713.2
2018-Feb-07 22:30N 35°48' E 014°38'5 0.4
2018-Feb-07 09:19N 35°49' E 014°32'0 0.0
2018-Feb-07 08:55N 35°49' E 014°32'  

Dump ship's entire track history